Time;durP1;ratioP1;P1;durP2;ratioP2;P2;SDS_P1;SDS_P2;PMS_P1;PMS_P2;Temp;Humidity;BMP_temperature;BMP_pressure;BME280_temperature;BME280_humidity;BME280_pressure;Samples;Min_cycle;Max_cycle;Signal;HPM_P1;HPM_P2
2021/05/13 00:01:06;;;;;;;14.50;6.32;;;8.60;93.70;;;;;;4982070;28;20148;-69
2021/05/13 00:03:35;;;;;;;16.27;6.80;;;8.60;93.80;;;;;;4986405;28;20027;-69
2021/05/13 00:06:01;;;;;;;10.02;5.80;;;8.50;93.80;;;;;;4984238;28;20388;-69
2021/05/13 00:08:27;;;;;;;12.20;6.57;;;8.50;93.80;;;;;;4983094;28;20034;-69
2021/05/13 00:11:01;;;;;;;12.57;6.75;;;8.40;93.90;;;;;;4986124;28;20029;-69
2021/05/13 00:13:28;;;;;;;14.18;6.75;;;8.40;94.20;;;;;;4982650;28;20045;-69
2021/05/13 00:15:54;;;;;;;11.95;6.75;;;8.40;94.00;;;;;;4988687;28;20032;-69
2021/05/13 00:18:19;;;;;;;12.63;7.25;;;8.40;94.00;;;;;;4986139;28;20035;-70
2021/05/13 00:20:45;;;;;;;16.40;7.25;;;8.30;94.10;;;;;;4986554;28;20031;-69
2021/05/13 00:23:10;;;;;;;16.10;7.03;;;8.30;94.20;;;;;;4987594;28;20087;-69
2021/05/13 00:25:36;;;;;;;13.88;7.15;;;8.30;94.10;;;;;;4986041;28;20030;-69
2021/05/13 00:28:03;;;;;;;12.63;7.05;;;8.30;94.20;;;;;;4984954;28;20491;-69
2021/05/13 00:30:29;;;;;;;15.20;7.10;;;8.30;94.20;;;;;;4986058;28;20081;-69
2021/05/13 00:32:55;;;;;;;8.77;5.38;;;8.30;94.30;;;;;;4984565;28;20076;-69
2021/05/13 00:35:21;;;;;;;13.13;5.88;;;8.30;94.30;;;;;;4985233;28;20079;-69
2021/05/13 00:37:47;;;;;;;13.23;6.93;;;8.30;94.20;;;;;;4985260;28;20130;-70
2021/05/13 00:40:15;;;;;;;12.52;5.97;;;8.20;94.20;;;;;;4988992;28;20022;-69
2021/05/13 00:42:41;;;;;;;10.07;4.72;;;8.20;94.30;;;;;;4984190;28;20041;-70
2021/05/13 00:45:09;;;;;;;10.27;4.20;;;8.10;94.30;;;;;;4986039;28;20026;-69
2021/05/13 00:47:37;;;;;;;11.82;5.50;;;8.10;94.30;;;;;;4984691;28;20022;-69
2021/05/13 00:50:05;;;;;;;12.98;5.95;;;8.10;94.40;;;;;;4986343;28;20503;-70
2021/05/13 00:52:32;;;;;;;7.55;4.75;;;8.10;94.40;;;;;;4981589;28;20029;-69
2021/05/13 00:54:58;;;;;;;8.38;5.20;;;8.10;94.40;;;;;;4986315;28;20034;-69
2021/05/13 00:57:26;;;;;;;11.88;4.97;;;8.00;94.40;;;;;;4988051;28;20030;-69
2021/05/13 00:59:55;;;;;;;9.98;5.07;;;8.00;94.40;;;;;;4985156;28;20087;-69
2021/05/13 01:02:21;;;;;;;10.63;5.90;;;8.00;94.40;;;;;;4984054;28;20027;-69
2021/05/13 01:04:46;;;;;;;12.15;5.20;;;7.90;94.50;;;;;;4984623;28;20160;-69
2021/05/13 01:07:12;;;;;;;9.68;5.95;;;7.90;94.50;;;;;;4984359;28;20042;-69
2021/05/13 01:09:38;;;;;;;10.60;6.57;;;7.90;94.50;;;;;;4988628;28;20026;-69
2021/05/13 01:12:11;;;;;;;13.20;7.22;;;7.90;94.60;;;;;;4986661;28;20033;-70
2021/05/13 01:19:37;;;;;;;13.95;6.50;;;7.80;94.70;;;;;;4986819;28;20026;-69
2021/05/13 01:22:02;;;;;;;8.95;6.43;;;7.80;94.70;;;;;;4979260;28;20034;-70
2021/05/13 01:24:28;;;;;;;10.40;5.75;;;7.90;94.80;;;;;;4986086;28;20022;-69
2021/05/13 01:26:54;;;;;;;9.75;5.68;;;7.80;94.70;;;;;;4984937;28;20026;-70
2021/05/13 01:29:22;;;;;;;15.13;7.72;;;7.80;94.70;;;;;;4987702;28;20105;-70
2021/05/13 01:31:48;;;;;;;11.75;6.50;;;7.80;94.70;;;;;;4987419;28;20492;-69
2021/05/13 01:34:14;;;;;;;18.40;6.72;;;7.70;94.80;;;;;;4980347;28;20057;-69
2021/05/13 01:36:40;;;;;;;11.82;6.40;;;7.70;94.80;;;;;;4985397;28;20067;-70
2021/05/13 01:39:08;;;;;;;15.30;6.85;;;7.70;94.90;;;;;;4987086;28;20034;-69
2021/05/13 01:41:35;;;;;;;12.30;6.45;;;7.70;94.90;;;;;;4988029;28;20143;-69
2021/05/13 01:44:00;;;;;;;11.57;5.95;;;7.60;94.90;;;;;;4984958;28;20117;-70
2021/05/13 01:46:26;;;;;;;8.23;4.22;;;7.60;95.00;;;;;;4986775;28;20113;-70
2021/05/13 01:48:52;;;;;;;8.93;5.43;;;7.60;94.90;;;;;;4981283;28;20034;-69
2021/05/13 01:51:17;;;;;;;9.68;5.10;;;7.50;94.90;;;;;;4985572;28;20456;-69
2021/05/13 01:53:44;;;;;;;8.85;4.90;;;7.50;95.00;;;;;;4984547;28;20076;-69
2021/05/13 01:56:11;;;;;;;8.98;4.63;;;7.50;95.00;;;;;;4986501;28;20725;-70
2021/05/13 01:58:37;;;;;;;7.68;4.93;;;7.50;95.00;;;;;;4987233;28;20022;-69
2021/05/13 02:01:05;;;;;;;14.25;6.22;;;7.50;95.10;;;;;;4988493;28;20026;-70
2021/05/13 02:03:31;;;;;;;11.25;5.78;;;7.50;95.10;;;;;;4984730;28;20614;-69
2021/05/13 02:05:56;;;;;;;9.95;6.15;;;7.50;95.10;;;;;;4983986;28;20041;-69
2021/05/13 02:08:23;;;;;;;13.43;7.15;;;7.50;95.10;;;;;;4983145;28;20034;-69
2021/05/13 02:10:48;;;;;;;11.82;6.15;;;7.50;95.20;;;;;;4986084;28;20037;-69
2021/05/13 02:13:14;;;;;;;10.77;5.72;;;7.50;95.20;;;;;;4981601;28;20019;-69
2021/05/13 02:15:40;;;;;;;9.13;5.00;;;7.40;95.10;;;;;;4983652;28;20113;-69
2021/05/13 02:18:06;;;;;;;7.10;4.72;;;7.40;95.10;;;;;;4983637;28;20495;-70
2021/05/13 02:20:32;;;;;;;8.95;5.05;;;7.30;95.10;;;;;;4986448;28;20061;-69
2021/05/13 02:22:58;;;;;;;8.35;5.50;;;7.30;95.20;;;;;;4988548;28;20046;-69
2021/05/13 02:25:31;;;;;;;12.30;5.35;;;7.30;95.20;;;;;;4985221;28;20380;-69
2021/05/13 02:27:56;;;;;;;;;;;7.30;95.20;;;;;;5001469;28;20025;-69
2021/05/13 02:30:22;;;;;;;12.75;5.95;;;7.20;95.40;;;;;;4988595;28;19914;-69
2021/05/13 02:32:48;;;;;;;11.65;5.05;;;7.20;95.20;;;;;;4987763;28;20030;-69
2021/05/13 02:35:14;;;;;;;10.85;6.55;;;7.20;95.10;;;;;;4987637;28;20063;-69
2021/05/13 02:37:41;;;;;;;9.27;5.95;;;7.20;95.20;;;;;;4985161;28;20462;-69
2021/05/13 02:40:08;;;;;;;10.15;6.00;;;7.20;95.30;;;;;;4984308;28;20383;-69
2021/05/13 02:42:34;;;;;;;9.20;4.40;;;7.20;95.30;;;;;;4980836;28;20049;-70
2021/05/13 02:45:00;;;;;;;6.78;4.22;;;7.20;95.30;;;;;;4983542;28;20035;-69
2021/05/13 02:47:25;;;;;;;11.00;5.32;;;7.20;95.30;;;;;;4985588;28;20058;-69
2021/05/13 02:49:51;;;;;;;8.50;4.95;;;7.10;95.30;;;;;;4988681;28;20038;-68
2021/05/13 02:52:17;;;;;;;12.93;5.25;;;7.20;95.40;;;;;;4985196;28;20023;-68
2021/05/13 02:54:43;;;;;;;15.57;5.63;;;7.10;95.40;;;;;;4984753;28;20025;-68
2021/05/13 02:57:09;;;;;;;11.00;5.93;;;7.20;95.50;;;;;;4986819;28;20038;-69
2021/05/13 02:59:49;;;;;;;10.50;5.25;;;7.10;95.50;;;;;;4988613;28;20365;-68
2021/05/13 03:02:15;;;;;;;14.43;6.05;;;7.20;95.50;;;;;;4985111;28;20470;-68
2021/05/13 03:04:42;;;;;;;17.20;7.40;;;7.20;95.60;;;;;;4984755;28;20033;-68
2021/05/13 03:07:09;;;;;;;13.65;5.65;;;7.20;95.60;;;;;;4989485;28;20053;-68
2021/05/13 03:09:38;;;;;;;15.68;5.65;;;7.20;95.60;;;;;;4987002;28;20105;-68
2021/05/13 03:12:04;;;;;;;12.35;5.90;;;7.20;95.60;;;;;;4988318;28;20425;-68
2021/05/13 03:14:30;;;;;;;12.57;5.78;;;7.20;95.60;;;;;;4989601;28;20023;-68
2021/05/13 03:16:56;;;;;;;11.32;6.30;;;7.20;95.70;;;;;;4989819;28;20083;-68
2021/05/13 03:20:03;;;;;;;13.00;5.60;;;7.20;95.70;;;;;;4987494;28;20037;-68
2021/05/13 03:22:14;;;;;;;13.73;5.82;;;7.20;95.70;;;;;;4980193;28;20091;-68
2021/05/13 03:24:48;;;;;;;15.32;6.22;;;7.20;95.60;;;;;;4983025;28;20054;-68
2021/05/13 03:29:39;;;;;;;15.20;5.63;;;7.10;95.60;;;;;;4985556;28;20030;-68
2021/05/13 03:32:05;;;;;;;9.75;4.97;;;7.10;95.60;;;;;;4985488;28;20053;-68
2021/05/13 03:34:31;;;;;;;14.60;6.05;;;7.00;95.50;;;;;;4989167;28;20023;-68
2021/05/13 03:36:56;;;;;;;10.88;4.55;;;6.90;95.60;;;;;;4981126;28;20045;-68
2021/05/13 03:39:22;;;;;;;11.40;5.13;;;6.90;95.70;;;;;;4985620;28;20033;-68
2021/05/13 03:41:48;;;;;;;11.52;5.97;;;6.80;95.70;;;;;;4986408;28;20041;-68
2021/05/13 03:44:13;;;;;;;14.38;6.22;;;6.80;95.80;;;;;;4988742;28;20026;-69
2021/05/13 03:46:39;;;;;;;17.98;6.13;;;6.80;95.80;;;;;;4984590;28;20121;-68
2021/05/13 03:49:04;;;;;;;21.67;7.63;;;6.80;95.90;;;;;;4985675;28;20030;-69
2021/05/13 03:51:30;;;;;;;12.73;6.18;;;6.80;95.90;;;;;;4981934;28;20396;-69
2021/05/13 03:53:56;;;;;;;16.45;7.20;;;6.80;95.90;;;;;;4982954;28;20034;-70
2021/05/13 03:56:22;;;;;;;15.35;7.60;;;6.70;95.90;;;;;;4985864;28;20038;-69
2021/05/13 03:58:54;;;;;;;16.35;6.93;;;6.70;95.90;;;;;;4989459;28;20041;-69
2021/05/13 04:03:54;;;;;;;17.60;8.35;;;6.70;96.00;;;;;;4988507;28;20048;-69
2021/05/13 04:06:19;;;;;;;17.50;8.88;;;6.80;96.00;;;;;;4989486;28;20089;-69
2021/05/13 04:08:48;;;;;;;16.55;8.93;;;6.80;96.00;;;;;;4983958;28;20057;-69
2021/05/13 04:11:13;;;;;;;20.52;10.65;;;6.80;96.10;;;;;;4984858;28;20468;-69
2021/05/13 04:13:40;;;;;;;18.95;10.98;;;6.90;96.10;;;;;;4985826;28;20121;-69
2021/05/13 04:16:07;;;;;;;19.27;12.43;;;6.90;96.20;;;;;;4979696;28;20035;-69
2021/05/13 04:18:33;;;;;;;25.73;15.20;;;7.00;96.20;;;;;;4988034;28;20030;-69
2021/05/13 04:20:58;;;;;;;24.20;13.10;;;7.10;96.20;;;;;;4982579;28;20533;-69
2021/05/13 04:23:24;;;;;;;22.75;14.30;;;7.20;96.20;;;;;;4985488;28;20474;-69
2021/05/13 04:25:50;;;;;;;16.20;11.43;;;7.30;96.20;;;;;;4985250;28;20026;-69
2021/05/13 04:28:15;;;;;;;14.98;10.38;;;7.40;96.10;;;;;;4987001;28;20030;-69
2021/05/13 04:30:41;;;;;;;13.68;10.23;;;7.40;96.00;;;;;;4986695;28;20038;-69
2021/05/13 04:33:06;;;;;;;17.10;10.18;;;7.30;95.90;;;;;;4986057;28;20058;-69
2021/05/13 04:35:32;;;;;;;13.93;10.55;;;7.30;96.00;;;;;;4985289;28;20030;-69
2021/05/13 04:37:58;;;;;;;18.63;13.07;;;7.20;96.00;;;;;;4984294;28;20038;-69
2021/05/13 04:40:24;;;;;;;15.52;11.48;;;7.20;96.10;;;;;;4986026;28;20038;-69
2021/05/13 04:42:49;;;;;;;16.77;11.63;;;7.30;96.20;;;;;;4985360;28;20087;-69
2021/05/13 04:45:15;;;;;;;16.40;11.48;;;7.30;96.30;;;;;;4982153;28;20126;-69
2021/05/13 04:50:07;;;;;;;17.15;11.65;;;7.30;96.40;;;;;;4985415;28;20034;-69
2021/05/13 04:52:35;;;;;;;17.15;11.60;;;7.40;96.40;;;;;;4982596;28;20019;-69
2021/05/13 04:55:00;;;;;;;18.38;12.77;;;7.50;96.40;;;;;;4982609;28;20022;-69
2021/05/13 04:57:26;;;;;;;21.35;14.70;;;7.60;96.40;;;;;;4987476;28;20027;-69
2021/05/13 04:59:52;;;;;;;25.17;16.05;;;7.60;96.40;;;;;;4986920;28;20388;-69
2021/05/13 05:02:17;;;;;;;19.13;14.35;;;7.70;96.40;;;;;;4984827;28;20079;-69
2021/05/13 05:04:43;;;;;;;24.70;17.50;;;7.80;96.40;;;;;;4983592;28;20022;-69
2021/05/13 05:07:09;;;;;;;30.25;18.85;;;7.90;96.40;;;;;;4981048;28;20038;-69
2021/05/13 05:09:34;;;;;;;34.40;20.23;;;8.00;96.60;;;;;;4978353;28;20037;-69
2021/05/13 05:12:00;;;;;;;30.33;20.13;;;8.20;96.70;;;;;;4980613;28;20031;-69
2021/05/13 05:14:26;;;;;;;28.27;17.88;;;8.30;96.60;;;;;;4986549;28;20439;-69
2021/05/13 05:16:52;;;;;;;22.98;14.43;;;8.50;96.60;;;;;;4985165;28;20057;-69
2021/05/13 05:19:17;;;;;;;15.75;12.75;;;8.60;96.60;;;;;;4981696;28;20425;-69
2021/05/13 05:21:43;;;;;;;13.82;11.63;;;8.90;96.80;;;;;;4982574;28;20022;-69
2021/05/13 05:24:09;;;;;;;11.10;9.18;;;9.20;97.20;;;;;;4985890;28;20022;-69
2021/05/13 05:26:34;;;;;;;9.82;8.77;;;9.60;97.30;;;;;;4983241;28;20088;-69
2021/05/13 05:29:02;;;;;;;12.52;8.70;;;10.10;97.40;;;;;;4981533;28;20030;-69
2021/05/13 05:31:27;;;;;;;11.63;8.00;;;10.50;97.30;;;;;;4994368;28;20409;-69
2021/05/13 05:33:53;;;;;;;11.98;9.18;;;10.90;97.00;;;;;;4984034;28;20027;-69
2021/05/13 05:36:18;;;;;;;12.32;8.98;;;11.20;96.50;;;;;;4980538;28;20056;-69
2021/05/13 05:38:50;;;;;;;12.88;9.90;;;11.40;96.00;;;;;;4981452;28;20031;-70
2021/05/13 05:41:15;;;;;;;15.25;12.02;;;11.50;95.60;;;;;;4983273;28;20499;-68
2021/05/13 05:43:41;;;;;;;17.65;12.48;;;11.60;95.10;;;;;;4982159;28;20113;-68
2021/05/13 05:46:06;;;;;;;22.52;15.02;;;11.70;94.80;;;;;;4982958;28;20058;-69
2021/05/13 05:48:32;;;;;;;17.17;12.68;;;11.80;94.70;;;;;;4984561;28;20102;-68
2021/05/13 05:50:57;;;;;;;22.38;15.20;;;11.80;94.50;;;;;;4981948;28;20120;-69
2021/05/13 05:53:23;;;;;;;20.58;15.55;;;12.00;94.50;;;;;;4985741;28;20447;-69
2021/05/13 05:55:49;;;;;;;23.00;15.63;;;12.00;94.40;;;;;;4983918;28;20492;-69
2021/05/13 05:58:14;;;;;;;23.58;14.90;;;12.10;94.20;;;;;;4985033;28;20034;-69
2021/05/13 06:00:40;;;;;;;21.77;15.65;;;12.20;94.50;;;;;;4981312;28;20054;-69
2021/05/13 06:03:06;;;;;;;20.48;15.90;;;12.30;94.10;;;;;;4984540;28;20105;-69
2021/05/13 06:05:32;;;;;;;18.70;14.90;;;12.30;94.00;;;;;;4983521;28;20553;-68
2021/05/13 06:07:57;;;;;;;20.50;16.52;;;12.40;94.00;;;;;;4981966;28;20464;-69
2021/05/13 06:10:23;;;;;;;20.00;16.50;;;12.50;94.20;;;;;;4981967;28;20046;-69
2021/05/13 06:12:49;;;;;;;21.00;15.60;;;12.50;93.80;;;;;;4980009;28;20046;-69
2021/05/13 06:15:18;;;;;;;21.80;15.48;;;12.60;93.80;;;;;;4982122;28;20054;-69
2021/05/13 06:17:44;;;;;;;26.15;16.85;;;12.70;93.60;;;;;;4985184;28;20052;-69
2021/05/13 06:20:17;;;;;;;19.80;15.00;;;12.70;93.50;;;;;;4988174;28;20032;-69
2021/05/13 06:22:42;;;;;;;21.05;15.35;;;12.90;93.40;;;;;;5014414;28;20129;-69
2021/05/13 06:25:08;;;;;;;23.33;16.02;;;12.90;93.30;;;;;;4984800;28;20039;-69
2021/05/13 06:27:34;;;;;;;21.00;16.30;;;13.10;93.00;;;;;;4987323;28;20038;-69
2021/05/13 06:29:59;;;;;;;21.83;15.43;;;13.20;92.80;;;;;;4986095;28;20026;-69
2021/05/13 06:32:26;;;;;;;19.42;15.60;;;13.30;92.60;;;;;;4979911;28;20030;-69
2021/05/13 06:34:51;;;;;;;23.80;17.05;;;13.40;92.50;;;;;;4985505;28;20026;-70
2021/05/13 06:37:17;;;;;;;22.67;16.10;;;13.50;92.20;;;;;;4984593;28;20117;-70
2021/05/13 06:39:43;;;;;;;20.70;15.82;;;13.60;92.00;;;;;;4984798;28;20031;-70
2021/05/13 06:42:09;;;;;;;22.13;16.95;;;13.70;91.80;;;;;;4985304;28;20409;-70
2021/05/13 06:44:34;;;;;;;18.17;15.90;;;13.80;91.50;;;;;;4987058;28;20034;-70
2021/05/13 06:47:00;;;;;;;22.50;16.85;;;13.90;91.40;;;;;;4986064;28;20058;-71
2021/05/13 06:49:26;;;;;;;19.05;15.40;;;14.00;91.10;;;;;;4987520;28;20038;-70
2021/05/13 06:51:51;;;;;;;18.90;14.48;;;14.10;91.00;;;;;;4981093;28;20063;-71
2021/05/13 06:54:20;;;;;;;17.05;15.23;;;14.20;91.10;;;;;;4984729;28;20026;-70
2021/05/13 06:56:47;;;;;;;20.98;15.73;;;14.20;90.50;;;;;;4987040;28;20027;-70
2021/05/13 06:59:13;;;;;;;19.38;15.50;;;14.40;90.30;;;;;;4985495;28;20102;-70
2021/05/13 07:01:38;;;;;;;20.77;15.98;;;14.50;90.10;;;;;;4986230;28;20113;-70
2021/05/13 07:04:04;;;;;;;18.42;15.70;;;14.60;89.50;;;;;;4984833;28;20109;-70
2021/05/13 07:06:32;;;;;;;17.40;15.10;;;14.70;88.60;;;;;;4986782;28;20027;-70
2021/05/13 07:08:58;;;;;;;20.38;15.35;;;14.70;88.10;;;;;;4988544;28;20034;-70
2021/05/13 07:11:24;;;;;;;17.42;15.32;;;14.80;87.50;;;;;;4987165;28;20084;-70
2021/05/13 07:13:49;;;;;;;18.05;16.08;;;14.90;87.10;;;;;;4989572;28;20039;-68
2021/05/13 07:16:15;;;;;;;19.45;16.80;;;15.10;86.60;;;;;;4986708;28;20377;-68
2021/05/13 07:18:40;;;;;;;35.10;18.35;;;15.20;86.30;;;;;;4986517;28;20035;-68
2021/05/13 07:21:06;;;;;;;18.88;16.45;;;15.30;85.70;;;;;;4976255;28;20038;-68
2021/05/13 07:23:31;;;;;;;20.33;16.52;;;15.40;85.40;;;;;;4982793;28;20026;-68
2021/05/13 07:25:58;;;;;;;22.27;17.55;;;15.50;85.00;;;;;;4987934;28;20030;-68
2021/05/13 07:28:23;;;;;;;20.05;16.55;;;15.60;84.60;;;;;;4992649;28;20022;-68
2021/05/13 07:30:49;;;;;;;23.13;17.38;;;15.60;83.80;;;;;;4992781;28;20404;-68
2021/05/13 07:33:14;;;;;;;20.80;17.88;;;15.70;83.70;;;;;;4992679;28;20050;-68
2021/05/13 07:35:40;;;;;;;21.17;17.92;;;15.80;83.70;;;;;;4992779;28;20535;-69
2021/05/13 07:38:06;;;;;;;24.95;18.83;;;15.90;83.20;;;;;;4992779;28;20484;-68
2021/05/13 07:40:31;;;;;;;25.70;19.10;;;15.90;82.50;;;;;;4992893;28;20030;-68
2021/05/13 07:42:57;;;;;;;20.30;17.30;;;16.00;81.80;;;;;;4992411;28;20158;-68
2021/05/13 07:45:24;;;;;;;23.75;18.00;;;16.10;81.40;;;;;;4992627;28;20384;-68
2021/05/13 07:47:49;;;;;;;21.02;17.65;;;16.20;81.00;;;;;;4992630;28;20022;-68
2021/05/13 07:50:18;;;;;;;20.02;16.98;;;16.40;80.40;;;;;;4990904;28;20101;-68
2021/05/13 07:52:45;;;;;;;18.38;16.40;;;16.50;79.70;;;;;;4989715;28;20105;-70
2021/05/13 07:55:11;;;;;;;19.77;16.48;;;16.50;79.10;;;;;;4975262;28;20484;-69
2021/05/13 07:57:37;;;;;;;21.15;18.75;;;16.70;78.40;;;;;;4987487;28;20431;-69
2021/05/13 08:00:08;;;;;;;20.88;17.02;;;16.70;78.80;;;;;;4988084;28;20022;-69
2021/05/13 08:02:33;;;;;;;19.75;17.65;;;16.90;77.60;;;;;;5005423;28;20064;-69
2021/05/13 08:04:59;;;;;;;18.02;16.13;;;16.90;76.80;;;;;;4992281;28;20018;-69
2021/05/13 08:07:25;;;;;;;20.60;18.15;;;17.00;76.40;;;;;;4992382;28;20365;-69
2021/05/13 08:09:51;;;;;;;18.35;15.88;;;17.00;75.90;;;;;;4992259;28;20022;-69
2021/05/13 08:12:17;;;;;;;17.27;15.27;;;17.10;75.40;;;;;;4990764;28;20018;-68
2021/05/13 08:14:44;;;;;;;17.38;15.45;;;17.20;74.80;;;;;;4992295;28;20026;-68
2021/05/13 08:17:13;;;;;;;16.90;13.85;;;17.30;74.30;;;;;;4991419;28;20141;-69
2021/05/13 08:19:39;;;;;;;19.20;15.55;;;17.40;74.30;;;;;;4991216;28;20442;-68
2021/05/13 08:22:05;;;;;;;20.98;15.63;;;17.50;73.30;;;;;;4992104;28;20030;-69
2021/05/13 08:24:31;;;;;;;13.43;11.73;;;17.50;72.30;;;;;;4991978;28;20038;-69
2021/05/13 08:27:00;;;;;;;15.98;11.80;;;17.60;71.10;;;;;;4991697;28;20038;-69
2021/05/13 08:29:25;;;;;;;17.75;11.10;;;17.60;70.80;;;;;;4992241;28;20140;-69
2021/05/13 08:31:51;;;;;;;13.80;11.60;;;17.70;69.70;;;;;;4991842;28;20052;-69
2021/05/13 08:34:17;;;;;;;14.98;12.68;;;17.70;69.40;;;;;;4978086;28;20023;-69
2021/05/13 08:36:42;;;;;;;16.48;14.30;;;17.80;69.30;;;;;;4982371;28;20027;-68
2021/05/13 08:39:08;;;;;;;16.75;14.43;;;17.90;69.50;;;;;;4980588;28;20105;-68
2021/05/13 08:41:34;;;;;;;18.08;14.10;;;17.90;69.20;;;;;;4986953;28;20019;-68
2021/05/13 08:43:59;;;;;;;16.55;12.88;;;18.00;69.40;;;;;;4990440;28;20038;-68
2021/05/13 08:46:25;;;;;;;18.67;15.38;;;18.10;68.90;;;;;;4991754;28;20113;-68
2021/05/13 08:48:51;;;;;;;16.85;14.63;;;18.00;68.20;;;;;;4991181;28;20019;-68
2021/05/13 08:51:18;;;;;;;19.55;14.55;;;18.00;68.30;;;;;;4991347;28;20472;-68
2021/05/13 08:53:48;;;;;;;19.45;15.85;;;17.90;68.20;;;;;;4991433;28;20046;-68
2021/05/13 08:56:13;;;;;;;18.45;15.55;;;17.70;67.80;;;;;;4991359;28;20071;-68
2021/05/13 08:58:41;;;;;;;18.95;15.52;;;17.50;67.90;;;;;;4991468;28;20027;-68
2021/05/13 09:01:06;;;;;;;15.88;13.52;;;17.30;68.90;;;;;;4990345;28;20499;-68
2021/05/13 09:03:37;;;;;;;18.30;14.77;;;17.20;69.40;;;;;;4991633;28;20034;-68
2021/05/13 09:06:06;;;;;;;15.10;12.93;;;17.10;69.20;;;;;;4991369;28;20027;-69
2021/05/13 09:08:32;;;;;;;13.38;11.85;;;17.20;69.20;;;;;;4982460;28;20030;-69
2021/05/13 09:11:12;;;;;;;15.00;12.35;;;17.20;69.20;;;;;;4991378;28;20034;-68
2021/05/13 09:13:38;;;;;;;17.10;13.27;;;17.20;68.50;;;;;;4971906;28;20046;-68
2021/05/13 09:16:35;;;;;;;14.07;11.18;;;17.20;68.20;;;;;;4986329;28;20034;-68
2021/05/13 09:19:18;;;;;;;15.68;10.77;;;17.30;67.80;;;;;;4990438;28;20045;-68
2021/05/13 09:22:04;;;;;;;14.13;10.35;;;17.30;68.00;;;;;;4991051;28;20039;-68
2021/05/13 09:24:52;;;;;;;15.88;10.52;;;17.30;67.90;;;;;;4991388;28;20050;-68
2021/05/13 09:27:24;;;;;;;17.65;13.88;;;17.40;67.70;;;;;;4991058;28;20065;-68
2021/05/13 09:30:05;;;;;;;;;;;17.40;67.70;;;;;;4991101;28;20033;-68
2021/05/13 09:32:31;;;;;;;15.13;11.30;;;17.50;68.10;;;;;;4990725;28;19971;-69
2021/05/13 09:35:08;;;;;;;14.05;10.73;;;17.70;67.10;;;;;;4990592;28;20023;-69
2021/05/13 09:37:39;;;;;;;18.95;12.15;;;17.80;67.00;;;;;;4971753;28;20023;-69
2021/05/13 09:40:06;;;;;;;15.27;12.00;;;17.70;66.10;;;;;;4989520;28;20034;-69
2021/05/13 09:42:31;;;;;;;17.98;12.32;;;17.60;66.50;;;;;;4991216;28;20023;-69
2021/05/13 09:45:00;;;;;;;12.40;10.52;;;17.60;66.70;;;;;;4990742;28;20045;-69
2021/05/13 09:47:27;;;;;;;12.40;9.50;;;17.50;66.70;;;;;;4989602;28;20038;-70
2021/05/13 09:50:11;;;;;;;16.85;9.57;;;17.40;66.30;;;;;;4980657;28;20030;-70
2021/05/13 09:52:57;;;;;;;11.48;9.43;;;17.40;66.40;;;;;;4973064;28;20023;-70
2021/05/13 09:55:32;;;;;;;12.02;9.23;;;17.40;66.30;;;;;;4990940;28;20022;-70
2021/05/13 09:58:10;;;;;;;13.00;9.23;;;17.30;66.60;;;;;;4990719;28;20030;-70
2021/05/13 10:00:47;;;;;;;11.85;9.05;;;17.30;66.90;;;;;;4977741;28;20035;-70
2021/05/13 10:03:22;;;;;;;12.68;9.63;;;17.30;67.20;;;;;;4977683;28;20631;-70
2021/05/13 10:05:50;;;;;;;13.32;10.38;;;17.40;66.30;;;;;;4987738;28;20523;-70
2021/05/13 10:08:16;;;;;;;12.10;9.48;;;17.30;66.40;;;;;;4990663;28;20126;-70
2021/05/13 10:10:42;;;;;;;11.90;7.55;;;17.50;66.60;;;;;;4990460;28;20054;-70
2021/05/13 10:13:09;;;;;;;10.98;6.80;;;17.70;65.50;;;;;;4990547;28;20201;-70
2021/05/13 10:15:40;;;;;;;10.18;6.90;;;17.80;63.00;;;;;;4990243;28;20072;-70
2021/05/13 10:18:13;;;;;;;9.48;6.70;;;17.80;63.40;;;;;;4990649;28;20110;-70
2021/05/13 10:20:39;;;;;;;10.07;6.57;;;17.90;63.00;;;;;;4990577;28;20038;-70
2021/05/13 10:23:04;;;;;;;8.73;6.38;;;17.80;62.30;;;;;;4990398;28;20454;-70
2021/05/13 10:25:33;;;;;;;12.25;6.97;;;17.80;62.50;;;;;;4990398;28;20022;-70
2021/05/13 10:28:04;;;;;;;9.20;7.15;;;17.70;62.70;;;;;;4990248;28;20022;-70
2021/05/13 10:30:35;;;;;;;12.18;7.57;;;17.60;62.90;;;;;;4989799;28;20034;-70
2021/05/13 10:33:20;;;;;;;10.18;7.47;;;17.50;63.20;;;;;;4990336;28;20030;-70
2021/05/13 10:36:07;;;;;;;10.85;7.28;;;17.60;63.10;;;;;;4986872;28;20391;-70
2021/05/13 10:38:45;;;;;;;10.18;6.40;;;17.60;62.50;;;;;;4989197;28;20068;-70
2021/05/13 10:41:32;;;;;;;10.00;6.65;;;17.70;62.90;;;;;;4993394;28;20027;-70
2021/05/13 10:44:19;;;;;;;7.75;5.70;;;17.80;62.30;;;;;;4993996;28;20023;-70
2021/05/13 10:46:55;;;;;;;8.10;6.35;;;17.90;61.20;;;;;;4986055;28;20065;-70
2021/05/13 10:49:23;;;;;;;9.30;6.15;;;18.00;60.00;;;;;;4993492;28;20547;-70
2021/05/13 10:52:13;;;;;;;8.90;5.57;;;18.10;59.70;;;;;;4991842;28;20353;-70
2021/05/13 10:54:46;;;;;;;8.32;4.60;;;18.20;59.40;;;;;;4986269;28;20057;-70
2021/05/13 10:57:19;;;;;;;12.50;5.40;;;18.40;59.60;;;;;;4992153;28;20052;-70
2021/05/13 11:00:04;;;;;;;7.22;4.78;;;18.60;58.80;;;;;;4978735;28;20037;-70
2021/05/13 11:02:56;;;;;;;8.80;5.10;;;18.80;58.20;;;;;;4979410;28;20022;-70
2021/05/13 11:05:30;;;;;;;8.50;5.35;;;18.80;56.80;;;;;;4991113;28;20034;-70
2021/05/13 11:08:16;;;;;;;6.70;4.53;;;18.60;55.60;;;;;;4991353;28;20033;-70
2021/05/13 11:11:02;;;;;;;5.50;3.83;;;18.40;56.80;;;;;;4985859;28;20117;-69
2021/05/13 11:13:42;;;;;;;7.32;4.22;;;18.50;57.60;;;;;;4979405;28;20033;-69
2021/05/13 11:16:49;;;;;;;7.05;4.53;;;18.80;56.30;;;;;;4977223;28;20507;-69
2021/05/13 11:19:19;;;;;;;6.18;3.97;;;18.90;56.30;;;;;;4993056;28;20038;-69
2021/05/13 11:22:03;;;;;;;5.95;3.97;;;19.00;56.80;;;;;;4993007;28;20030;-69
2021/05/13 11:24:33;;;;;;;7.88;5.07;;;19.10;56.20;;;;;;4993297;28;20110;-69
2021/05/13 11:26:59;;;;;;;6.38;4.15;;;19.30;56.40;;;;;;4978385;28;20062;-69
2021/05/13 11:29:24;;;;;;;7.30;4.60;;;19.60;56.30;;;;;;4992919;28;20100;-69
2021/05/13 11:31:51;;;;;;;6.95;3.83;;;19.90;55.80;;;;;;4989112;28;20066;-69
2021/05/13 11:34:21;;;;;;;6.50;3.65;;;20.10;55.10;;;;;;4991550;28;20468;-69
2021/05/13 11:36:47;;;;;;;5.90;3.88;;;20.30;54.80;;;;;;4992749;28;20096;-69
2021/05/13 11:39:17;;;;;;;6.00;4.00;;;20.40;53.90;;;;;;4982872;28;20062;-69
2021/05/13 11:41:45;;;;;;;5.78;3.15;;;20.40;53.20;;;;;;4973373;28;20034;-69
2021/05/13 11:44:11;;;;;;;8.82;3.83;;;20.50;52.60;;;;;;4989170;28;20026;-69
2021/05/13 11:46:38;;;;;;;8.65;2.75;;;20.60;52.20;;;;;;4991546;28;20029;-69
2021/05/13 11:49:06;;;;;;;5.22;3.30;;;20.60;50.70;;;;;;4992744;28;20022;-70
2021/05/13 11:51:33;;;;;;;5.93;3.22;;;20.50;50.60;;;;;;5011298;28;20026;-69
2021/05/13 11:54:04;;;;;;;7.00;3.00;;;20.50;50.20;;;;;;4993166;28;20121;-69
2021/05/13 11:56:33;;;;;;;5.68;2.78;;;20.50;50.30;;;;;;4989343;28;20032;-69
2021/05/13 11:59:09;;;;;;;5.70;2.80;;;20.60;50.90;;;;;;4991570;28;20030;-69
2021/05/13 12:01:43;;;;;;;5.80;3.17;;;20.70;50.20;;;;;;4992519;28;20031;-69
2021/05/13 12:04:13;;;;;;;5.05;3.08;;;20.60;49.60;;;;;;4990994;28;20545;-69
2021/05/13 12:07:14;;;;;;;6.35;2.40;;;20.70;49.40;;;;;;4992262;28;20060;-69
2021/05/13 12:09:45;;;;;;;7.13;2.92;;;20.70;49.00;;;;;;5017443;28;20025;-69
2021/05/13 12:12:22;;;;;;;4.88;2.47;;;20.60;49.00;;;;;;5079241;28;20052;-69
2021/05/13 12:14:47;;;;;;;5.88;3.33;;;20.60;48.40;;;;;;4991733;28;20472;-70
2021/05/13 12:17:13;;;;;;;4.85;2.67;;;20.60;48.00;;;;;;4991006;28;20027;-69
2021/05/13 12:19:41;;;;;;;6.93;2.83;;;20.60;48.60;;;;;;4992144;28;20034;-69
2021/05/13 12:22:10;;;;;;;4.35;2.30;;;20.90;49.30;;;;;;4992122;28;20042;-69
2021/05/13 12:24:40;;;;;;;7.55;2.97;;;21.10;48.60;;;;;;4989883;28;20023;-69
2021/05/13 12:27:05;;;;;;;7.78;3.15;;;21.20;47.50;;;;;;4990682;28;20030;-69
2021/05/13 12:29:34;;;;;;;4.80;2.38;;;21.10;46.70;;;;;;4991887;28;20602;-70
2021/05/13 12:31:59;;;;;;;6.55;2.60;;;21.00;46.80;;;;;;4986596;28;20600;-70
2021/05/13 12:34:34;;;;;;;4.55;2.30;;;21.00;46.90;;;;;;4984418;28;20109;-69
2021/05/13 12:37:00;;;;;;;5.35;2.15;;;20.90;47.20;;;;;;4974765;28;20106;-69
2021/05/13 12:39:44;;;;;;;13.60;4.03;;;21.00;47.40;;;;;;4990731;28;20027;-69
2021/05/13 12:42:32;;;;;;;6.05;2.60;;;21.20;47.90;;;;;;4988502;28;20306;-69
2021/05/13 12:45:16;;;;;;;4.53;1.40;;;21.40;46.50;;;;;;4991510;28;20032;-70
2021/05/13 12:47:42;;;;;;;3.97;1.73;;;21.60;45.90;;;;;;4991961;28;20019;-70
2021/05/13 12:50:09;;;;;;;4.40;1.70;;;21.80;47.30;;;;;;4988776;28;20456;-69
2021/05/13 12:52:35;;;;;;;3.65;1.92;;;22.10;46.70;;;;;;4990705;28;20026;-69
2021/05/13 12:55:11;;;;;;;5.10;2.08;;;22.00;44.70;;;;;;4991374;28;20034;-69
2021/05/13 12:57:46;;;;;;;4.53;2.45;;;21.80;45.40;;;;;;4991667;28;20026;-69
2021/05/13 13:00:14;;;;;;;5.05;1.98;;;21.60;44.60;;;;;;4991656;28;20058;-70